sensor_id;sensor_type;location;lat;lon;timestamp;temperature;humidity
46976;DHT22;32724;51.094;6.996;2023-04-06T00:00:13;0.50;99.90
46976;DHT22;32724;51.094;6.996;2023-04-06T00:02:39;0.50;99.90
46976;DHT22;32724;51.094;6.996;2023-04-06T00:05:05;0.40;99.90
46976;DHT22;32724;51.094;6.996;2023-04-06T00:07:31;0.60;99.90
46976;DHT22;32724;51.094;6.996;2023-04-06T00:09:58;0.70;99.90
46976;DHT22;32724;51.094;6.996;2023-04-06T00:12:24;0.70;99.90
46976;DHT22;32724;51.094;6.996;2023-04-06T00:14:49;0.80;99.90
46976;DHT22;32724;51.094;6.996;2023-04-06T00:17:15;0.80;99.90
46976;DHT22;32724;51.094;6.996;2023-04-06T00:19:41;0.80;99.90
46976;DHT22;32724;51.094;6.996;2023-04-06T00:22:06;1.10;99.90
46976;DHT22;32724;51.094;6.996;2023-04-06T00:24:32;1.00;99.90
46976;DHT22;32724;51.094;6.996;2023-04-06T00:26:57;1.00;99.90
46976;DHT22;32724;51.094;6.996;2023-04-06T00:29:23;1.00;99.90
46976;DHT22;32724;51.094;6.996;2023-04-06T00:31:48;1.00;99.90
46976;DHT22;32724;51.094;6.996;2023-04-06T00:34:13;0.90;99.90
46976;DHT22;32724;51.094;6.996;2023-04-06T00:36:41;0.90;99.90
46976;DHT22;32724;51.094;6.996;2023-04-06T00:39:06;0.90;99.90
46976;DHT22;32724;51.094;6.996;2023-04-06T00:41:32;0.80;99.90
46976;DHT22;32724;51.094;6.996;2023-04-06T00:43:57;0.80;99.90
46976;DHT22;32724;51.094;6.996;2023-04-06T00:46:23;0.80;99.90
46976;DHT22;32724;51.094;6.996;2023-04-06T00:48:48;0.80;99.90
46976;DHT22;32724;51.094;6.996;2023-04-06T00:51:14;0.80;99.90
46976;DHT22;32724;51.094;6.996;2023-04-06T00:53:39;0.90;99.90
46976;DHT22;32724;51.094;6.996;2023-04-06T00:56:05;0.90;99.90
46976;DHT22;32724;51.094;6.996;2023-04-06T00:58:31;1.00;99.90
46976;DHT22;32724;51.094;6.996;2023-04-06T01:00:57;0.90;99.90
46976;DHT22;32724;51.094;6.996;2023-04-06T01:03:23;0.90;99.90
46976;DHT22;32724;51.094;6.996;2023-04-06T01:05:48;0.80;99.90
46976;DHT22;32724;51.094;6.996;2023-04-06T01:08:14;0.70;99.90
46976;DHT22;32724;51.094;6.996;2023-04-06T01:10:39;0.70;99.90
46976;DHT22;32724;51.094;6.996;2023-04-06T01:13:05;0.60;99.90
46976;DHT22;32724;51.094;6.996;2023-04-06T01:15:30;0.60;99.90
46976;DHT22;32724;51.094;6.996;2023-04-06T01:17:57;0.60;99.90
46976;DHT22;32724;51.094;6.996;2023-04-06T01:20:22;0.50;99.90
46976;DHT22;32724;51.094;6.996;2023-04-06T01:22:48;0.30;99.90
46976;DHT22;32724;51.094;6.996;2023-04-06T01:25:13;0.20;99.90
46976;DHT22;32724;51.094;6.996;2023-04-06T01:27:39;0.10;99.90
46976;DHT22;32724;51.094;6.996;2023-04-06T01:30:05;0.00;99.90
46976;DHT22;32724;51.094;6.996;2023-04-06T01:32:31;-0.10;99.90
46976;DHT22;32724;51.094;6.996;2023-04-06T01:34:56;-0.10;99.90
46976;DHT22;32724;51.094;6.996;2023-04-06T01:37:22;-0.10;99.90
46976;DHT22;32724;51.094;6.996;2023-04-06T01:39:47;-0.10;99.90
46976;DHT22;32724;51.094;6.996;2023-04-06T01:42:13;-0.20;99.90
46976;DHT22;32724;51.094;6.996;2023-04-06T01:44:38;-0.20;99.90
46976;DHT22;32724;51.094;6.996;2023-04-06T01:47:04;0.10;99.90
46976;DHT22;32724;51.094;6.996;2023-04-06T01:49:29;0.20;99.90
46976;DHT22;32724;51.094;6.996;2023-04-06T01:51:55;0.30;99.90
46976;DHT22;32724;51.094;6.996;2023-04-06T01:54:20;0.30;99.90
46976;DHT22;32724;51.094;6.996;2023-04-06T01:56:46;0.30;99.90
46976;DHT22;32724;51.094;6.996;2023-04-06T01:59:12;0.60;99.90
46976;DHT22;32724;51.094;6.996;2023-04-06T02:01:37;0.40;99.90
46976;DHT22;32724;51.094;6.996;2023-04-06T02:04:03;0.30;99.90
46976;DHT22;32724;51.094;6.996;2023-04-06T02:06:28;0.20;99.90
46976;DHT22;32724;51.094;6.996;2023-04-06T02:08:54;0.10;99.90
46976;DHT22;32724;51.094;6.996;2023-04-06T02:11:19;0.10;99.90
46976;DHT22;32724;51.094;6.996;2023-04-06T02:13:45;0.10;99.90
46976;DHT22;32724;51.094;6.996;2023-04-06T02:16:10;0.00;99.90
46976;DHT22;32724;51.094;6.996;2023-04-06T02:18:36;0.00;99.90
46976;DHT22;32724;51.094;6.996;2023-04-06T02:21:01;0.00;99.90
46976;DHT22;32724;51.094;6.996;2023-04-06T02:23:27;0.00;99.90
46976;DHT22;32724;51.094;6.996;2023-04-06T02:25:53;0.00;99.90
46976;DHT22;32724;51.094;6.996;2023-04-06T02:28:18;0.00;99.90
46976;DHT22;32724;51.094;6.996;2023-04-06T02:30:44;-0.10;99.90
46976;DHT22;32724;51.094;6.996;2023-04-06T02:33:09;-0.20;99.90
46976;DHT22;32724;51.094;6.996;2023-04-06T02:35:34;-0.30;99.90
46976;DHT22;32724;51.094;6.996;2023-04-06T02:38:00;-0.30;99.90
46976;DHT22;32724;51.094;6.996;2023-04-06T02:40:25;-0.30;99.90
46976;DHT22;32724;51.094;6.996;2023-04-06T02:42:51;-0.40;99.90
46976;DHT22;32724;51.094;6.996;2023-04-06T02:45:16;-0.40;99.90
46976;DHT22;32724;51.094;6.996;2023-04-06T02:47:42;-0.40;99.90
46976;DHT22;32724;51.094;6.996;2023-04-06T02:50:07;-0.40;99.90
46976;DHT22;32724;51.094;6.996;2023-04-06T02:52:33;-0.40;99.90
46976;DHT22;32724;51.094;6.996;2023-04-06T02:54:59;-0.10;99.90
46976;DHT22;32724;51.094;6.996;2023-04-06T02:57:24;-0.10;99.90
46976;DHT22;32724;51.094;6.996;2023-04-06T02:59:50;0.00;99.90
46976;DHT22;32724;51.094;6.996;2023-04-06T03:02:15;0.00;99.90
46976;DHT22;32724;51.094;6.996;2023-04-06T03:04:41;0.00;99.90
46976;DHT22;32724;51.094;6.996;2023-04-06T03:07:07;0.00;99.90
46976;DHT22;32724;51.094;6.996;2023-04-06T03:09:32;0.10;99.90
46976;DHT22;32724;51.094;6.996;2023-04-06T03:11:58;0.00;99.90
46976;DHT22;32724;51.094;6.996;2023-04-06T03:14:24;0.00;99.90
46976;DHT22;32724;51.094;6.996;2023-04-06T03:16:49;0.00;99.90
46976;DHT22;32724;51.094;6.996;2023-04-06T03:19:15;0.00;99.90
46976;DHT22;32724;51.094;6.996;2023-04-06T03:21:41;0.00;99.90
46976;DHT22;32724;51.094;6.996;2023-04-06T03:24:06;-0.10;99.90
46976;DHT22;32724;51.094;6.996;2023-04-06T03:26:32;-0.30;99.90
46976;DHT22;32724;51.094;6.996;2023-04-06T03:28:58;-0.40;99.90
46976;DHT22;32724;51.094;6.996;2023-04-06T03:31:23;-0.50;99.90
46976;DHT22;32724;51.094;6.996;2023-04-06T03:33:49;-0.60;99.90
46976;DHT22;32724;51.094;6.996;2023-04-06T03:36:14;-0.60;99.90
46976;DHT22;32724;51.094;6.996;2023-04-06T03:38:40;-0.60;99.90
46976;DHT22;32724;51.094;6.996;2023-04-06T03:41:05;-0.60;99.90
46976;DHT22;32724;51.094;6.996;2023-04-06T03:43:31;-0.70;99.90
46976;DHT22;32724;51.094;6.996;2023-04-06T03:45:56;-0.70;99.90
46976;DHT22;32724;51.094;6.996;2023-04-06T03:48:22;-0.70;99.90
46976;DHT22;32724;51.094;6.996;2023-04-06T03:50:47;-0.70;99.90
46976;DHT22;32724;51.094;6.996;2023-04-06T03:53:13;-0.70;99.90
46976;DHT22;32724;51.094;6.996;2023-04-06T03:55:38;-0.70;99.90
46976;DHT22;32724;51.094;6.996;2023-04-06T03:58:04;-0.70;99.90
46976;DHT22;32724;51.094;6.996;2023-04-06T04:00:30;-0.80;99.90
46976;DHT22;32724;51.094;6.996;2023-04-06T04:02:56;-0.90;99.90
46976;DHT22;32724;51.094;6.996;2023-04-06T04:05:22;-1.00;99.90
46976;DHT22;32724;51.094;6.996;2023-04-06T04:07:53;-1.10;99.90
46976;DHT22;32724;51.094;6.996;2023-04-06T04:10:19;-1.20;99.90
46976;DHT22;32724;51.094;6.996;2023-04-06T04:12:44;-1.30;99.90
46976;DHT22;32724;51.094;6.996;2023-04-06T04:15:10;-1.30;99.90
46976;DHT22;32724;51.094;6.996;2023-04-06T04:17:35;-1.30;99.90
46976;DHT22;32724;51.094;6.996;2023-04-06T04:20:00;-1.20;99.90
46976;DHT22;32724;51.094;6.996;2023-04-06T04:22:26;-1.20;99.90
46976;DHT22;32724;51.094;6.996;2023-04-06T04:24:53;-1.30;99.90
46976;DHT22;32724;51.094;6.996;2023-04-06T04:27:18;-1.40;99.90
46976;DHT22;32724;51.094;6.996;2023-04-06T04:29:44;-1.50;99.90
46976;DHT22;32724;51.094;6.996;2023-04-06T04:32:09;-1.50;99.90
46976;DHT22;32724;51.094;6.996;2023-04-06T04:34:35;-1.50;99.90
46976;DHT22;32724;51.094;6.996;2023-04-06T04:37:01;-1.50;99.90
46976;DHT22;32724;51.094;6.996;2023-04-06T04:39:26;-1.40;99.90
46976;DHT22;32724;51.094;6.996;2023-04-06T04:41:52;-1.40;99.90
46976;DHT22;32724;51.094;6.996;2023-04-06T04:44:18;-1.30;99.90
46976;DHT22;32724;51.094;6.996;2023-04-06T04:46:44;-1.30;99.90
46976;DHT22;32724;51.094;6.996;2023-04-06T04:49:09;-1.30;99.90
46976;DHT22;32724;51.094;6.996;2023-04-06T04:51:35;-1.20;99.90
46976;DHT22;32724;51.094;6.996;2023-04-06T04:54:01;-1.20;99.90
46976;DHT22;32724;51.094;6.996;2023-04-06T04:56:27;-1.10;99.90
46976;DHT22;32724;51.094;6.996;2023-04-06T04:58:52;-1.00;99.90
46976;DHT22;32724;51.094;6.996;2023-04-06T05:01:18;-0.90;99.90
46976;DHT22;32724;51.094;6.996;2023-04-06T05:03:43;-0.80;99.90
46976;DHT22;32724;51.094;6.996;2023-04-06T05:06:09;-0.80;99.90
46976;DHT22;32724;51.094;6.996;2023-04-06T05:08:34;-0.70;99.90
46976;DHT22;32724;51.094;6.996;2023-04-06T05:11:00;-0.60;99.90
46976;DHT22;32724;51.094;6.996;2023-04-06T05:13:25;-0.60;99.90
46976;DHT22;32724;51.094;6.996;2023-04-06T05:15:51;-0.50;99.90
46976;DHT22;32724;51.094;6.996;2023-04-06T05:18:16;-0.40;99.90
46976;DHT22;32724;51.094;6.996;2023-04-06T05:20:42;-0.40;99.90
46976;DHT22;32724;51.094;6.996;2023-04-06T05:23:07;0.20;99.90
46976;DHT22;32724;51.094;6.996;2023-04-06T05:25:33;0.30;99.90
46976;DHT22;32724;51.094;6.996;2023-04-06T05:27:58;0.40;99.90
46976;DHT22;32724;51.094;6.996;2023-04-06T05:30:24;0.30;99.90
46976;DHT22;32724;51.094;6.996;2023-04-06T05:32:52;0.40;99.90
46976;DHT22;32724;51.094;6.996;2023-04-06T05:35:18;0.60;99.90
46976;DHT22;32724;51.094;6.996;2023-04-06T05:37:43;0.80;99.90
46976;DHT22;32724;51.094;6.996;2023-04-06T05:40:09;1.10;99.90
46976;DHT22;32724;51.094;6.996;2023-04-06T05:42:41;1.30;99.90
46976;DHT22;32724;51.094;6.996;2023-04-06T05:45:08;1.50;99.90
46976;DHT22;32724;51.094;6.996;2023-04-06T05:47:34;1.70;99.90
46976;DHT22;32724;51.094;6.996;2023-04-06T05:49:59;1.90;99.90
46976;DHT22;32724;51.094;6.996;2023-04-06T05:52:25;1.90;99.90
46976;DHT22;32724;51.094;6.996;2023-04-06T05:54:50;1.90;99.90
46976;DHT22;32724;51.094;6.996;2023-04-06T05:57:16;2.00;99.90
46976;DHT22;32724;51.094;6.996;2023-04-06T05:59:44;2.00;99.90
46976;DHT22;32724;51.094;6.996;2023-04-06T06:02:10;2.00;99.90
46976;DHT22;32724;51.094;6.996;2023-04-06T06:04:35;2.00;99.90
46976;DHT22;32724;51.094;6.996;2023-04-06T06:07:01;2.10;99.90
46976;DHT22;32724;51.094;6.996;2023-04-06T06:09:27;2.10;99.90
46976;DHT22;32724;51.094;6.996;2023-04-06T06:11:52;2.20;99.90
46976;DHT22;32724;51.094;6.996;2023-04-06T06:14:17;2.30;99.90
46976;DHT22;32724;51.094;6.996;2023-04-06T06:16:43;2.40;99.90
46976;DHT22;32724;51.094;6.996;2023-04-06T06:19:08;2.40;99.90
46976;DHT22;32724;51.094;6.996;2023-04-06T06:21:34;2.30;99.90
46976;DHT22;32724;51.094;6.996;2023-04-06T06:24:00;2.30;99.90
46976;DHT22;32724;51.094;6.996;2023-04-06T06:26:25;2.30;99.90
46976;DHT22;32724;51.094;6.996;2023-04-06T06:28:51;2.40;99.90
46976;DHT22;32724;51.094;6.996;2023-04-06T06:31:16;2.40;99.90
46976;DHT22;32724;51.094;6.996;2023-04-06T06:33:43;2.60;99.90
46976;DHT22;32724;51.094;6.996;2023-04-06T06:36:09;2.80;99.90
46976;DHT22;32724;51.094;6.996;2023-04-06T06:38:34;3.10;99.90
46976;DHT22;32724;51.094;6.996;2023-04-06T06:41:00;3.30;99.90
46976;DHT22;32724;51.094;6.996;2023-04-06T06:43:25;3.50;99.90
46976;DHT22;32724;51.094;6.996;2023-04-06T06:45:51;3.80;99.90
46976;DHT22;32724;51.094;6.996;2023-04-06T06:48:16;4.30;99.90
46976;DHT22;32724;51.094;6.996;2023-04-06T06:50:42;4.50;99.90
46976;DHT22;32724;51.094;6.996;2023-04-06T06:53:07;4.60;99.90
46976;DHT22;32724;51.094;6.996;2023-04-06T06:55:33;4.70;99.90
46976;DHT22;32724;51.094;6.996;2023-04-06T06:57:58;4.80;99.90
46976;DHT22;32724;51.094;6.996;2023-04-06T07:00:24;5.00;99.90
46976;DHT22;32724;51.094;6.996;2023-04-06T07:02:49;5.10;99.90
46976;DHT22;32724;51.094;6.996;2023-04-06T07:05:15;5.20;99.90
46976;DHT22;32724;51.094;6.996;2023-04-06T07:07:41;5.30;99.90
46976;DHT22;32724;51.094;6.996;2023-04-06T07:10:07;5.40;99.90
46976;DHT22;32724;51.094;6.996;2023-04-06T07:12:33;5.50;99.90
46976;DHT22;32724;51.094;6.996;2023-04-06T07:14:58;5.70;99.90
46976;DHT22;32724;51.094;6.996;2023-04-06T07:17:24;5.90;99.90
46976;DHT22;32724;51.094;6.996;2023-04-06T07:19:49;5.90;99.90
46976;DHT22;32724;51.094;6.996;2023-04-06T07:22:15;6.00;99.90
46976;DHT22;32724;51.094;6.996;2023-04-06T07:24:40;6.20;99.90
46976;DHT22;32724;51.094;6.996;2023-04-06T07:27:06;6.30;99.90
46976;DHT22;32724;51.094;6.996;2023-04-06T07:29:32;6.40;99.90
46976;DHT22;32724;51.094;6.996;2023-04-06T07:31:57;6.60;99.90
46976;DHT22;32724;51.094;6.996;2023-04-06T07:34:23;6.80;99.90
46976;DHT22;32724;51.094;6.996;2023-04-06T07:36:48;6.90;99.90
46976;DHT22;32724;51.094;6.996;2023-04-06T07:39:14;7.10;99.90
46976;DHT22;32724;51.094;6.996;2023-04-06T07:41:40;7.40;99.90
46976;DHT22;32724;51.094;6.996;2023-04-06T07:44:05;7.70;99.90
46976;DHT22;32724;51.094;6.996;2023-04-06T07:46:31;7.90;99.90
46976;DHT22;32724;51.094;6.996;2023-04-06T07:48:57;8.10;99.90
46976;DHT22;32724;51.094;6.996;2023-04-06T07:51:23;8.10;99.90
46976;DHT22;32724;51.094;6.996;2023-04-06T07:53:49;8.00;99.90
46976;DHT22;32724;51.094;6.996;2023-04-06T07:56:15;7.90;99.90
46976;DHT22;32724;51.094;6.996;2023-04-06T07:58:41;7.90;99.90
46976;DHT22;32724;51.094;6.996;2023-04-06T08:01:06;8.00;99.90
46976;DHT22;32724;51.094;6.996;2023-04-06T08:03:33;8.00;99.90
46976;DHT22;32724;51.094;6.996;2023-04-06T08:05:58;8.10;99.90
46976;DHT22;32724;51.094;6.996;2023-04-06T08:08:24;8.10;99.90
46976;DHT22;32724;51.094;6.996;2023-04-06T08:10:49;8.20;99.90
46976;DHT22;32724;51.094;6.996;2023-04-06T08:13:15;8.30;99.90
46976;DHT22;32724;51.094;6.996;2023-04-06T08:15:41;8.40;99.90
46976;DHT22;32724;51.094;6.996;2023-04-06T08:18:07;8.50;99.90
46976;DHT22;32724;51.094;6.996;2023-04-06T08:20:34;8.50;99.90
46976;DHT22;32724;51.094;6.996;2023-04-06T08:22:59;8.40;99.90
46976;DHT22;32724;51.094;6.996;2023-04-06T08:25:25;8.60;99.90
46976;DHT22;32724;51.094;6.996;2023-04-06T08:27:51;8.50;99.90
46976;DHT22;32724;51.094;6.996;2023-04-06T08:30:17;8.50;99.90
46976;DHT22;32724;51.094;6.996;2023-04-06T08:32:44;8.80;99.90
46976;DHT22;32724;51.094;6.996;2023-04-06T08:35:09;8.90;99.90
46976;DHT22;32724;51.094;6.996;2023-04-06T08:37:35;9.10;99.90
46976;DHT22;32724;51.094;6.996;2023-04-06T08:40:00;9.10;99.90
46976;DHT22;32724;51.094;6.996;2023-04-06T08:42:26;9.20;99.90
46976;DHT22;32724;51.094;6.996;2023-04-06T08:44:53;9.30;99.50
46976;DHT22;32724;51.094;6.996;2023-04-06T08:47:20;9.30;99.90
46976;DHT22;32724;51.094;6.996;2023-04-06T08:49:45;9.50;99.90
46976;DHT22;32724;51.094;6.996;2023-04-06T08:52:11;9.60;98.50
46976;DHT22;32724;51.094;6.996;2023-04-06T08:54:37;9.80;98.40
46976;DHT22;32724;51.094;6.996;2023-04-06T08:57:03;9.90;98.00
46976;DHT22;32724;51.094;6.996;2023-04-06T08:59:29;10.00;97.00
46976;DHT22;32724;51.094;6.996;2023-04-06T09:01:55;10.20;97.80
46976;DHT22;32724;51.094;6.996;2023-04-06T09:04:21;10.50;97.60
46976;DHT22;32724;51.094;6.996;2023-04-06T09:06:46;10.70;95.60
46976;DHT22;32724;51.094;6.996;2023-04-06T09:09:12;10.80;96.80
46976;DHT22;32724;51.094;6.996;2023-04-06T09:11:55;10.90;94.80
46976;DHT22;32724;51.094;6.996;2023-04-06T09:14:36;11.00;95.60
46976;DHT22;32724;51.094;6.996;2023-04-06T09:17:05;11.30;94.60
46976;DHT22;32724;51.094;6.996;2023-04-06T09:19:31;11.60;93.30
46976;DHT22;32724;51.094;6.996;2023-04-06T09:22:06;11.60;93.60
46976;DHT22;32724;51.094;6.996;2023-04-06T09:24:44;11.90;91.90
46976;DHT22;32724;51.094;6.996;2023-04-06T09:27:10;11.70;92.00
46976;DHT22;32724;51.094;6.996;2023-04-06T09:29:36;11.70;91.50
46976;DHT22;32724;51.094;6.996;2023-04-06T09:32:05;11.70;91.90
46976;DHT22;32724;51.094;6.996;2023-04-06T09:34:31;11.80;91.00
46976;DHT22;32724;51.094;6.996;2023-04-06T09:36:56;12.10;91.40
46976;DHT22;32724;51.094;6.996;2023-04-06T09:39:22;12.20;90.80
46976;DHT22;32724;51.094;6.996;2023-04-06T09:41:49;12.40;91.30
46976;DHT22;32724;51.094;6.996;2023-04-06T09:44:15;12.60;90.60
46976;DHT22;32724;51.094;6.996;2023-04-06T09:46:41;12.90;89.10
46976;DHT22;32724;51.094;6.996;2023-04-06T09:49:08;12.80;89.20
46976;DHT22;32724;51.094;6.996;2023-04-06T09:51:37;12.60;90.00
46976;DHT22;32724;51.094;6.996;2023-04-06T09:54:02;12.60;89.70
46976;DHT22;32724;51.094;6.996;2023-04-06T10:02:07;12.20;90.90
46976;DHT22;32724;51.094;6.996;2023-04-06T10:04:43;12.40;90.40
46976;DHT22;32724;51.094;6.996;2023-04-06T10:07:12;12.30;90.50
46976;DHT22;32724;51.094;6.996;2023-04-06T10:09:38;12.40;90.80
46976;DHT22;32724;51.094;6.996;2023-04-06T10:12:04;12.40;90.30
46976;DHT22;32724;51.094;6.996;2023-04-06T10:14:31;12.40;91.30
46976;DHT22;32724;51.094;6.996;2023-04-06T10:16:57;12.70;91.50
46976;DHT22;32724;51.094;6.996;2023-04-06T10:19:24;13.20;90.40
46976;DHT22;32724;51.094;6.996;2023-04-06T10:21:53;13.60;90.60
46976;DHT22;32724;51.094;6.996;2023-04-06T10:24:20;13.80;89.40
46976;DHT22;32724;51.094;6.996;2023-04-06T10:26:56;14.00;89.50
46976;DHT22;32724;51.094;6.996;2023-04-06T10:29:22;14.20;90.50
46976;DHT22;32724;51.094;6.996;2023-04-06T10:31:48;14.50;87.30
46976;DHT22;32724;51.094;6.996;2023-04-06T10:34:13;14.80;87.30
46976;DHT22;32724;51.094;6.996;2023-04-06T10:36:39;15.00;85.60
46976;DHT22;32724;51.094;6.996;2023-04-06T10:39:05;14.80;86.70
46976;DHT22;32724;51.094;6.996;2023-04-06T10:41:35;14.70;86.20
46976;DHT22;32724;51.094;6.996;2023-04-06T10:44:01;14.80;86.20
46976;DHT22;32724;51.094;6.996;2023-04-06T10:46:28;14.80;86.80
46976;DHT22;32724;51.094;6.996;2023-04-06T10:48:53;14.80;85.00
46976;DHT22;32724;51.094;6.996;2023-04-06T10:51:19;15.10;83.60
46976;DHT22;32724;51.094;6.996;2023-04-06T10:53:49;15.30;84.20
46976;DHT22;32724;51.094;6.996;2023-04-06T10:56:15;15.60;82.80
46976;DHT22;32724;51.094;6.996;2023-04-06T10:58:44;15.30;81.30
46976;DHT22;32724;51.094;6.996;2023-04-06T11:01:11;15.20;83.20
46976;DHT22;32724;51.094;6.996;2023-04-06T11:03:47;15.50;82.70
46976;DHT22;32724;51.094;6.996;2023-04-06T11:08:45;15.50;82.10
46976;DHT22;32724;51.094;6.996;2023-04-06T11:11:11;14.70;82.80
46976;DHT22;32724;51.094;6.996;2023-04-06T11:16:12;13.90;84.80
46976;DHT22;32724;51.094;6.996;2023-04-06T11:18:38;14.00;85.20
46976;DHT22;32724;51.094;6.996;2023-04-06T11:21:11;14.20;82.90
46976;DHT22;32724;51.094;6.996;2023-04-06T11:23:36;14.40;83.20
46976;DHT22;32724;51.094;6.996;2023-04-06T11:26:02;14.80;84.30
46976;DHT22;32724;51.094;6.996;2023-04-06T11:28:27;15.20;82.70
46976;DHT22;32724;51.094;6.996;2023-04-06T11:30:53;15.60;83.90
46976;DHT22;32724;51.094;6.996;2023-04-06T11:33:21;15.80;81.50
46976;DHT22;32724;51.094;6.996;2023-04-06T11:35:48;15.80;81.90
46976;DHT22;32724;51.094;6.996;2023-04-06T11:38:13;15.90;80.30
46976;DHT22;32724;51.094;6.996;2023-04-06T11:40:39;15.90;80.50
46976;DHT22;32724;51.094;6.996;2023-04-06T11:43:04;16.10;80.70
46976;DHT22;32724;51.094;6.996;2023-04-06T11:45:41;15.90;81.70
46976;DHT22;32724;51.094;6.996;2023-04-06T11:48:16;15.70;80.00
46976;DHT22;32724;51.094;6.996;2023-04-06T11:50:42;15.50;80.90
46976;DHT22;32724;51.094;6.996;2023-04-06T11:53:08;15.40;78.40
46976;DHT22;32724;51.094;6.996;2023-04-06T11:55:37;15.30;81.30
46976;DHT22;32724;51.094;6.996;2023-04-06T11:58:02;15.30;81.90
46976;DHT22;32724;51.094;6.996;2023-04-06T12:00:28;15.50;83.40
46976;DHT22;32724;51.094;6.996;2023-04-06T12:02:59;15.80;81.10
46976;DHT22;32724;51.094;6.996;2023-04-06T12:05:25;15.60;81.20
46976;DHT22;32724;51.094;6.996;2023-04-06T12:07:50;15.70;81.30
46976;DHT22;32724;51.094;6.996;2023-04-06T12:10:16;15.90;80.40
46976;DHT22;32724;51.094;6.996;2023-04-06T12:12:41;15.70;79.50
46976;DHT22;32724;51.094;6.996;2023-04-06T12:15:07;15.30;79.50
46976;DHT22;32724;51.094;6.996;2023-04-06T12:17:33;15.40;82.00
46976;DHT22;32724;51.094;6.996;2023-04-06T12:19:58;15.30;80.20
46976;DHT22;32724;51.094;6.996;2023-04-06T12:22:24;15.50;80.40
46976;DHT22;32724;51.094;6.996;2023-04-06T12:24:49;15.40;81.00
46976;DHT22;32724;51.094;6.996;2023-04-06T12:27:15;15.70;82.80
46976;DHT22;32724;51.094;6.996;2023-04-06T12:29:40;15.80;81.30
46976;DHT22;32724;51.094;6.996;2023-04-06T12:32:06;15.80;80.30
46976;DHT22;32724;51.094;6.996;2023-04-06T12:34:31;15.60;81.30
46976;DHT22;32724;51.094;6.996;2023-04-06T12:36:57;15.40;81.60
46976;DHT22;32724;51.094;6.996;2023-04-06T12:39:22;15.30;81.30
46976;DHT22;32724;51.094;6.996;2023-04-06T12:41:49;14.60;86.30
46976;DHT22;32724;51.094;6.996;2023-04-06T12:44:14;14.50;86.80
46976;DHT22;32724;51.094;6.996;2023-04-06T12:46:40;14.20;88.00
46976;DHT22;32724;51.094;6.996;2023-04-06T12:49:06;14.10;88.10
46976;DHT22;32724;51.094;6.996;2023-04-06T12:51:31;14.40;87.70
46976;DHT22;32724;51.094;6.996;2023-04-06T12:53:57;14.70;86.30
46976;DHT22;32724;51.094;6.996;2023-04-06T12:56:22;14.80;86.20
46976;DHT22;32724;51.094;6.996;2023-04-06T12:58:49;14.90;86.10
46976;DHT22;32724;51.094;6.996;2023-04-06T13:01:15;14.90;85.40
46976;DHT22;32724;51.094;6.996;2023-04-06T13:03:41;15.00;85.30
46976;DHT22;32724;51.094;6.996;2023-04-06T13:06:07;15.10;85.30
46976;DHT22;32724;51.094;6.996;2023-04-06T13:08:34;14.90;84.50
46976;DHT22;32724;51.094;6.996;2023-04-06T13:10:59;15.10;85.80
46976;DHT22;32724;51.094;6.996;2023-04-06T13:13:26;15.20;86.30
46976;DHT22;32724;51.094;6.996;2023-04-06T13:15:52;15.30;82.70
46976;DHT22;32724;51.094;6.996;2023-04-06T13:18:18;15.10;83.40
46976;DHT22;32724;51.094;6.996;2023-04-06T13:20:43;14.90;83.90
46976;DHT22;32724;51.094;6.996;2023-04-06T13:23:09;15.00;85.30
46976;DHT22;32724;51.094;6.996;2023-04-06T13:25:35;14.90;84.80
46976;DHT22;32724;51.094;6.996;2023-04-06T13:28:01;14.80;86.00
46976;DHT22;32724;51.094;6.996;2023-04-06T13:30:26;14.90;88.20
46976;DHT22;32724;51.094;6.996;2023-04-06T13:32:52;14.70;87.00
46976;DHT22;32724;51.094;6.996;2023-04-06T13:35:17;14.60;86.30
46976;DHT22;32724;51.094;6.996;2023-04-06T13:37:43;14.70;88.40
46976;DHT22;32724;51.094;6.996;2023-04-06T13:40:08;14.70;88.30
46976;DHT22;32724;51.094;6.996;2023-04-06T13:42:34;14.60;86.40
46976;DHT22;32724;51.094;6.996;2023-04-06T13:45:09;14.30;86.70
46976;DHT22;32724;51.094;6.996;2023-04-06T13:47:34;14.30;88.80
46976;DHT22;32724;51.094;6.996;2023-04-06T13:50:00;14.20;90.00
46976;DHT22;32724;51.094;6.996;2023-04-06T13:52:25;14.10;90.60
46976;DHT22;32724;51.094;6.996;2023-04-06T13:54:52;14.00;90.20
46976;DHT22;32724;51.094;6.996;2023-04-06T13:57:17;14.00;90.80
46976;DHT22;32724;51.094;6.996;2023-04-06T13:59:43;13.80;90.70
46976;DHT22;32724;51.094;6.996;2023-04-06T14:02:09;13.60;91.60
46976;DHT22;32724;51.094;6.996;2023-04-06T14:04:34;13.70;92.90
46976;DHT22;32724;51.094;6.996;2023-04-06T14:07:01;13.60;92.70
46976;DHT22;32724;51.094;6.996;2023-04-06T14:09:27;13.50;92.70
46976;DHT22;32724;51.094;6.996;2023-04-06T14:11:52;13.20;92.70
46976;DHT22;32724;51.094;6.996;2023-04-06T14:14:18;13.20;93.60
46976;DHT22;32724;51.094;6.996;2023-04-06T14:16:44;13.10;93.80
46976;DHT22;32724;51.094;6.996;2023-04-06T14:19:13;13.10;93.70
46976;DHT22;32724;51.094;6.996;2023-04-06T14:21:58;13.00;93.30
46976;DHT22;32724;51.094;6.996;2023-04-06T14:24:25;12.90;93.40
46976;DHT22;32724;51.094;6.996;2023-04-06T14:26:50;12.60;93.70
46976;DHT22;32724;51.094;6.996;2023-04-06T14:29:16;12.50;94.10
46976;DHT22;32724;51.094;6.996;2023-04-06T14:31:41;12.40;94.30
46976;DHT22;32724;51.094;6.996;2023-04-06T14:34:07;12.40;94.60
46976;DHT22;32724;51.094;6.996;2023-04-06T14:36:33;12.20;94.60
46976;DHT22;32724;51.094;6.996;2023-04-06T14:39:03;11.60;95.70
46976;DHT22;32724;51.094;6.996;2023-04-06T14:41:30;11.30;96.10
46976;DHT22;32724;51.094;6.996;2023-04-06T14:43:56;11.10;96.80
46976;DHT22;32724;51.094;6.996;2023-04-06T14:46:21;11.10;97.30
46976;DHT22;32724;51.094;6.996;2023-04-06T14:48:47;11.00;98.00
46976;DHT22;32724;51.094;6.996;2023-04-06T14:51:13;10.80;98.50
46976;DHT22;32724;51.094;6.996;2023-04-06T14:53:38;10.50;99.80
46976;DHT22;32724;51.094;6.996;2023-04-06T14:56:04;10.40;99.90
46976;DHT22;32724;51.094;6.996;2023-04-06T14:58:29;10.20;99.90
46976;DHT22;32724;51.094;6.996;2023-04-06T15:00:56;10.20;99.90
46976;DHT22;32724;51.094;6.996;2023-04-06T15:03:23;10.40;99.90
46976;DHT22;32724;51.094;6.996;2023-04-06T15:05:53;10.60;99.90
46976;DHT22;32724;51.094;6.996;2023-04-06T15:08:19;10.80;99.90
46976;DHT22;32724;51.094;6.996;2023-04-06T15:10:48;10.80;99.90
46976;DHT22;32724;51.094;6.996;2023-04-06T15:13:13;10.70;99.90
46976;DHT22;32724;51.094;6.996;2023-04-06T15:15:40;10.70;99.90
46976;DHT22;32724;51.094;6.996;2023-04-06T15:18:05;10.50;99.90
46976;DHT22;32724;51.094;6.996;2023-04-06T15:20:31;10.40;99.90
46976;DHT22;32724;51.094;6.996;2023-04-06T15:22:57;10.20;99.90
46976;DHT22;32724;51.094;6.996;2023-04-06T15:25:22;10.20;99.90
46976;DHT22;32724;51.094;6.996;2023-04-06T15:27:48;10.20;99.90
46976;DHT22;32724;51.094;6.996;2023-04-06T15:30:13;10.10;99.90
46976;DHT22;32724;51.094;6.996;2023-04-06T15:32:39;10.00;99.90
46976;DHT22;32724;51.094;6.996;2023-04-06T15:35:08;9.80;99.90
46976;DHT22;32724;51.094;6.996;2023-04-06T15:37:34;9.70;99.90
46976;DHT22;32724;51.094;6.996;2023-04-06T15:39:59;9.70;99.90